createdAt,value
2023-03-23T16:00:18.832Z,15.71
2023-03-23T16:02:47.621Z,15.80
2023-03-23T16:05:16.012Z,15.79
2023-03-23T16:07:43.596Z,15.58
2023-03-23T16:10:18.090Z,15.71
2023-03-23T16:12:46.042Z,15.71
2023-03-23T16:15:16.276Z,15.58
2023-03-23T16:17:44.907Z,15.42
2023-03-23T16:20:15.755Z,15.34
2023-03-23T16:22:43.422Z,15.09
2023-03-23T16:25:12.676Z,15.12
2023-03-23T16:27:44.411Z,14.83
2023-03-23T16:30:22.770Z,14.83
2023-03-23T16:32:52.501Z,14.90
2023-03-23T16:35:22.456Z,14.91
2023-03-23T16:38:07.383Z,14.92
2023-03-23T16:40:35.371Z,14.83
2023-03-23T16:43:09.084Z,14.71
2023-03-23T16:45:41.648Z,14.46
2023-03-23T16:48:11.991Z,14.57
2023-03-23T16:50:40.211Z,14.57
2023-03-23T16:53:09.794Z,14.48
2023-03-23T16:55:38.239Z,14.37
2023-03-23T16:58:16.539Z,14.33
2023-03-23T17:00:53.693Z,14.37
2023-03-23T17:03:22.700Z,14.27
2023-03-23T17:05:51.890Z,14.14
2023-03-23T17:08:21.254Z,14.10
2023-03-23T17:10:49.589Z,14.06
2023-03-23T17:13:17.901Z,14.00
2023-03-23T17:15:48.866Z,14.05
2023-03-23T17:18:17.401Z,13.98
2023-03-23T17:20:46.413Z,14.02
2023-03-23T17:23:26.255Z,13.93
2023-03-23T17:25:54.070Z,13.93
2023-03-23T17:28:22.989Z,13.78
2023-03-23T17:31:01.219Z,13.83
2023-03-23T17:33:29.176Z,13.81
2023-03-23T17:35:58.306Z,13.82
2023-03-23T17:38:28.513Z,13.79
2023-03-23T17:41:01.306Z,13.83
2023-03-23T17:43:29.572Z,13.79
2023-03-23T17:45:59.203Z,13.73
2023-03-23T17:48:27.256Z,13.79
2023-03-23T17:50:57.678Z,13.83
2023-03-23T17:56:11.311Z,13.73
2023-03-23T17:58:39.214Z,13.75
2023-03-23T18:01:08.786Z,13.79
2023-03-23T18:03:37.603Z,13.85
2023-03-23T18:06:28.561Z,13.84
2023-03-23T18:08:56.771Z,13.82
2023-03-23T18:11:24.677Z,13.78
2023-03-23T18:13:52.321Z,13.78
2023-03-23T18:16:21.465Z,13.71
2023-03-23T18:18:49.452Z,13.74
2023-03-23T18:21:18.096Z,13.72
2023-03-23T18:23:58.402Z,13.70
2023-03-23T18:26:27.792Z,13.72
2023-03-23T18:28:55.919Z,13.78
2023-03-23T18:31:25.205Z,13.79
2023-03-23T18:36:55.172Z,13.77
2023-03-23T18:39:25.168Z,13.91
2023-03-23T18:45:23.718Z,13.89
2023-03-23T18:47:55.300Z,13.91
2023-03-23T18:50:33.010Z,13.83
2023-03-23T18:53:02.911Z,13.86
2023-03-23T18:55:44.568Z,13.76
2023-03-23T18:58:12.978Z,13.75
2023-03-23T19:00:45.763Z,13.76
2023-03-23T19:03:21.683Z,13.80
2023-03-23T19:06:17.644Z,13.70
2023-03-23T19:08:45.800Z,13.63
2023-03-23T19:11:13.860Z,13.64
2023-03-23T19:13:53.898Z,13.68
2023-03-23T19:16:31.011Z,13.61
2023-03-23T19:18:58.759Z,13.59
2023-03-23T19:21:29.048Z,13.58
2023-03-23T19:24:00.042Z,13.64
2023-03-23T19:26:36.650Z,13.59
2023-03-23T19:31:40.841Z,13.72
2023-03-23T19:34:11.885Z,13.80
2023-03-23T19:36:40.310Z,13.80
2023-03-23T19:39:10.475Z,13.82
2023-03-23T19:41:38.954Z,13.84
2023-03-23T19:44:08.493Z,13.95
2023-03-23T19:46:38.206Z,13.80
2023-03-23T19:49:07.699Z,13.90
2023-03-23T19:51:36.662Z,13.83
2023-03-23T19:54:07.156Z,13.87
2023-03-23T19:56:36.798Z,13.64
2023-03-23T19:59:05.312Z,13.54
2023-03-23T20:01:33.653Z,13.51
2023-03-23T20:04:05.460Z,13.62
2023-03-23T20:06:34.657Z,13.56
2023-03-23T20:09:08.621Z,13.59
2023-03-23T20:11:39.168Z,13.59
2023-03-23T20:14:07.894Z,13.63
2023-03-23T20:16:36.025Z,13.63
2023-03-23T20:19:05.778Z,13.65
2023-03-23T20:21:36.386Z,13.73
2023-03-23T20:24:06.346Z,13.59
2023-03-23T20:26:36.866Z,13.62
2023-03-23T20:29:07.954Z,13.68
2023-03-23T20:31:42.274Z,13.77
2023-03-23T20:34:13.959Z,13.64
2023-03-23T20:36:45.136Z,13.75
2023-03-23T20:39:14.694Z,13.69
2023-03-23T20:41:45.570Z,13.69
2023-03-23T20:44:17.774Z,13.73
2023-03-23T20:46:46.468Z,13.87
2023-03-23T20:49:15.991Z,13.86
2023-03-23T20:51:47.597Z,13.82
2023-03-23T20:54:16.455Z,13.83
2023-03-23T20:56:48.359Z,13.94
2023-03-23T20:59:18.452Z,13.84
2023-03-23T21:01:46.416Z,13.74
2023-03-23T21:04:21.180Z,13.63
2023-03-23T21:06:50.279Z,13.64
2023-03-23T21:09:18.952Z,13.61
2023-03-23T21:11:49.016Z,13.52
2023-03-23T21:14:17.365Z,13.46
2023-03-23T21:16:45.338Z,13.53
2023-03-23T21:19:15.218Z,13.65
2023-03-23T21:21:56.329Z,13.70
2023-03-23T21:24:30.772Z,13.79
2023-03-23T21:27:02.053Z,13.59
2023-03-23T21:29:45.398Z,13.49
2023-03-23T21:32:20.734Z,13.43
2023-03-23T21:35:01.712Z,13.43
2023-03-23T21:37:35.081Z,13.52
2023-03-23T21:40:04.270Z,13.47
2023-03-23T21:42:34.631Z,13.37
2023-03-23T21:45:03.010Z,13.38
2023-03-23T21:47:32.106Z,13.43
2023-03-23T21:50:06.487Z,13.50
2023-03-23T21:52:36.862Z,13.53
2023-03-23T21:55:05.043Z,13.52
2023-03-23T21:57:34.826Z,13.46
2023-03-23T22:00:05.327Z,13.45
2023-03-23T22:02:34.904Z,13.62
2023-03-23T22:05:10.614Z,13.51
2023-03-23T22:07:39.781Z,13.45
2023-03-23T22:10:09.109Z,13.45
2023-03-23T22:12:43.200Z,13.51
2023-03-23T22:15:18.852Z,13.56
2023-03-23T22:17:48.847Z,13.58
2023-03-23T22:20:17.880Z,13.54
2023-03-23T22:22:45.916Z,13.62
2023-03-23T22:25:15.272Z,13.56
2023-03-23T22:27:42.868Z,13.58
2023-03-23T22:30:11.199Z,13.63
2023-03-23T22:32:39.264Z,13.61
2023-03-23T22:35:07.609Z,13.63
2023-03-23T22:37:36.536Z,13.70
2023-03-23T22:40:07.205Z,13.70
2023-03-23T22:42:36.120Z,13.83
2023-03-23T22:45:03.892Z,13.79
2023-03-23T22:47:31.663Z,13.74
2023-03-23T22:50:03.067Z,13.79
2023-03-23T22:52:31.570Z,13.87
2023-03-23T22:55:00.706Z,13.98
2023-03-23T22:57:28.441Z,13.92
2023-03-23T22:59:56.191Z,13.90
2023-03-23T23:02:23.873Z,13.96
2023-03-23T23:04:54.421Z,13.87
2023-03-23T23:07:22.155Z,13.99
2023-03-23T23:09:50.544Z,13.81
2023-03-23T23:12:21.585Z,13.92
2023-03-23T23:14:49.817Z,13.85
2023-03-23T23:17:17.725Z,13.76
2023-03-23T23:19:45.406Z,13.75
2023-03-23T23:22:18.832Z,13.71
2023-03-23T23:24:47.554Z,13.70
2023-03-23T23:27:15.498Z,13.50
2023-03-23T23:29:44.742Z,13.52
2023-03-23T23:32:12.517Z,13.41
2023-03-23T23:34:40.271Z,13.28
2023-03-23T23:37:09.022Z,13.24
2023-03-23T23:39:38.476Z,13.22
2023-03-23T23:42:08.692Z,13.20
2023-03-23T23:44:36.795Z,13.14
2023-03-23T23:47:06.486Z,13.30
2023-03-23T23:49:34.350Z,13.29
2023-03-23T23:52:02.179Z,13.23
2023-03-23T23:54:30.618Z,13.14
2023-03-23T23:57:00.014Z,12.97
2023-03-23T23:59:28.793Z,12.90
